Time,TemperatureF,DewpointF,PressureIn,WindDirection,WindDirectionDegrees,WindSpeedMPH,WindSpeedGustMPH,Humidity,HourlyPrecipIn,Conditions,Clouds,dailyrainin,SoftwareType,DateUTC
2013-09-05 00:02:00,66.2,62.9,29.89,NNE,22,0.0,-999.0,89,-99.99,,,0.00,Acu-Link.com,2013-09-05 04:02:00,
2013-09-05 00:18:00,66.2,62.9,29.89,NNE,22,0.0,-999.0,89,-99.99,,,0.00,Acu-Link.com,2013-09-05 04:18:00,
2013-09-05 00:33:00,66.2,63.2,29.89,NNE,22,0.0,-999.0,90,-99.99,,,0.00,Acu-Link.com,2013-09-05 04:33:00,
2013-09-05 00:48:00,66.2,63.2,29.89,NNE,22,0.0,-999.0,90,-99.99,,,0.00,Acu-Link.com,2013-09-05 04:48:00,
2013-09-05 01:03:00,66.2,63.8,29.89,NNE,22,0.0,-999.0,92,-99.99,,,0.00,Acu-Link.com,2013-09-05 05:03:00,
2013-09-05 01:19:00,64.4,62.0,29.89,NNE,22,0.0,-999.0,92,-99.99,,,0.00,Acu-Link.com,2013-09-05 05:19:00,
2013-09-05 01:34:00,64.4,62.0,29.88,NNE,22,0.0,-999.0,92,-99.99,,,0.00,Acu-Link.com,2013-09-05 05:34:00,
2013-09-05 01:49:00,64.4,62.0,29.88,NNE,22,0.0,-999.0,92,-99.99,,,0.00,Acu-Link.com,2013-09-05 05:49:00,
2013-09-05 02:05:00,64.4,62.3,29.88,NNE,22,0.0,-999.0,93,-99.99,,,0.00,Acu-Link.com,2013-09-05 06:05:00,
2013-09-05 02:20:00,64.4,62.3,29.88,NNE,22,0.0,-999.0,93,-99.99,,,0.00,Acu-Link.com,2013-09-05 06:20:00,
2013-09-05 02:35:00,64.4,62.3,29.87,NNE,22,0.0,-999.0,93,-99.99,,,0.00,Acu-Link.com,2013-09-05 06:35:00,
2013-09-05 02:51:00,64.4,62.3,29.87,NNE,22,0.0,-999.0,93,-99.99,,,0.00,Acu-Link.com,2013-09-05 06:51:00,
2013-09-05 03:06:00,66.2,65.9,29.87,NNE,22,0.0,-999.0,99,-99.99,,,0.00,Acu-Link.com,2013-09-05 07:06:00,
2013-09-05 03:21:00,64.4,64.1,29.86,NNE,22,0.0,-999.0,99,-99.99,,,0.00,Acu-Link.com,2013-09-05 07:21:00,
2013-09-05 03:36:00,64.4,64.1,29.86,NNE,22,0.0,-999.0,99,-99.99,,,0.00,Acu-Link.com,2013-09-05 07:36:00,
2013-09-05 03:52:00,64.4,64.1,29.86,NNE,22,0.0,-999.0,99,-99.99,,,0.00,Acu-Link.com,2013-09-05 07:52:00,
2013-09-05 04:07:00,66.2,65.9,29.86,NNE,22,0.0,-999.0,99,-99.99,,,0.00,Acu-Link.com,2013-09-05 08:07:00,
2013-09-05 04:23:00,66.2,65.9,29.86,NNE,22,0.0,-999.0,99,-99.99,,,0.00,Acu-Link.com,2013-09-05 08:23:00,
2013-09-05 04:38:00,66.2,65.9,29.86,NNE,22,0.0,-999.0,99,-99.99,,,0.00,Acu-Link.com,2013-09-05 08:38:00,
2013-09-05 04:53:00,66.2,65.9,29.86,NNE,22,0.0,-999.0,99,-99.99,,,0.00,Acu-Link.com,2013-09-05 08:53:00,
2013-09-05 05:08:00,66.2,65.9,29.87,NNE,22,0.0,-999.0,99,-99.99,,,0.00,Acu-Link.com,2013-09-05 09:08:00,
2013-09-05 05:23:00,66.2,65.9,29.86,NE,45,0.0,-999.0,99,-99.99,,,0.00,Acu-Link.com,2013-09-05 09:23:00,
2013-09-05 05:38:00,64.4,64.1,29.87,NE,45,0.0,-999.0,99,-99.99,,,0.00,Acu-Link.com,2013-09-05 09:38:00,
2013-09-05 05:54:00,64.4,64.1,29.87,NNE,22,0.0,-999.0,99,-99.99,,,0.00,Acu-Link.com,2013-09-05 09:54:00,
2013-09-05 06:09:00,64.4,64.1,29.87,NNE,22,0.0,-999.0,99,-99.99,,,0.00,Acu-Link.com,2013-09-05 10:09:00,
2013-09-05 06:24:00,64.4,64.1,29.87,NNE,22,0.0,-999.0,99,-99.99,,,0.00,Acu-Link.com,2013-09-05 10:24:00,
2013-09-05 06:39:00,64.4,64.1,29.88,NNE,22,0.0,-999.0,99,-99.99,,,0.00,Acu-Link.com,2013-09-05 10:39:00,
2013-09-05 06:55:00,64.4,64.1,29.88,NE,45,0.0,-999.0,99,-99.99,,,0.00,Acu-Link.com,2013-09-05 10:55:00,
2013-09-05 07:10:00,64.4,64.1,29.89,NE,45,0.0,-999.0,99,-99.99,,,0.00,Acu-Link.com,2013-09-05 11:10:00,
2013-09-05 07:25:00,64.4,64.1,29.88,NE,45,0.0,-999.0,99,-99.99,,,0.00,Acu-Link.com,2013-09-05 11:25:00,
2013-09-05 07:40:00,64.4,64.1,29.89,NE,45,0.0,-999.0,99,-99.99,,,0.00,Acu-Link.com,2013-09-05 11:40:00,
2013-09-05 07:55:00,66.2,65.9,29.90,NE,45,0.0,-999.0,99,-99.99,,,0.00,Acu-Link.com,2013-09-05 11:55:00,
2013-09-05 08:11:00,68.0,67.7,29.90,NE,45,0.0,-999.0,99,-99.99,,,0.00,Acu-Link.com,2013-09-05 12:11:00,
2013-09-05 08:26:00,68.0,67.1,29.90,NE,45,0.0,-999.0,97,-99.99,,,0.00,Acu-Link.com,2013-09-05 12:26:00,
2013-09-05 08:41:00,71.6,70.1,29.90,NNE,22,1.1,-999.0,95,-99.99,,,0.00,Acu-Link.com,2013-09-05 12:41:00,
2013-09-05 08:56:00,77.0,68.5,29.90,NNE,22,0.0,-999.0,75,-99.99,,,0.00,Acu-Link.com,2013-09-05 12:56:00,
2013-09-05 09:11:00,78.8,66.9,29.90,ESE,112,0.0,-999.0,67,-99.99,,,0.00,Acu-Link.com,2013-09-05 13:11:00,
2013-09-05 09:27:00,80.6,66.4,29.90,NE,45,0.0,-999.0,62,-99.99,,,0.00,Acu-Link.com,2013-09-05 13:27:00,
2013-09-05 09:42:00,80.6,66.4,29.91,ESE,112,1.1,-999.0,62,-99.99,,,0.00,Acu-Link.com,2013-09-05 13:42:00,
2013-09-05 09:57:00,82.4,68.0,29.91,NNE,22,0.0,-999.0,62,-99.99,,,0.00,Acu-Link.com,2013-09-05 13:57:00,
2013-09-05 10:12:00,87.8,67.4,29.92,West,270,1.6,-999.0,51,-99.99,,,0.00,Acu-Link.com,2013-09-05 14:12:00,
2013-09-05 10:27:00,89.6,65.4,29.91,South,180,2.7,-999.0,45,-99.99,,,0.00,Acu-Link.com,2013-09-05 14:27:00,
2013-09-05 10:43:00,89.6,64.8,29.91,SSE,157,2.0,-999.0,44,-99.99,,,0.00,Acu-Link.com,2013-09-05 14:43:00,
2013-09-05 10:58:00,89.6,64.8,29.91,ESE,112,2.0,-999.0,44,-99.99,,,0.00,Acu-Link.com,2013-09-05 14:58:00,
2013-09-05 11:13:00,87.8,65.0,29.91,South,180,4.0,-999.0,47,-99.99,,,0.00,Acu-Link.com,2013-09-05 15:13:00,
2013-09-05 11:29:00,91.4,66.4,29.91,South,180,2.0,-999.0,44,-99.99,,,0.00,Acu-Link.com,2013-09-05 15:29:00,
2013-09-05 11:44:00,86.0,64.6,29.91,South,180,4.7,-999.0,49,-99.99,,,0.00,Acu-Link.com,2013-09-05 15:44:00,
2013-09-05 11:59:00,86.0,66.8,29.91,SSE,157,3.1,-999.0,53,-99.99,,,0.00,Acu-Link.com,2013-09-05 15:59:00,
2013-09-05 12:15:00,86.0,66.3,29.91,SSE,157,3.1,-999.0,52,-99.99,,,0.00,Acu-Link.com,2013-09-05 16:15:00,
2013-09-05 12:30:00,86.0,65.7,29.91,South,180,4.7,-999.0,51,-99.99,,,0.00,Acu-Link.com,2013-09-05 16:30:00,
2013-09-05 12:45:00,87.8,65.0,29.90,South,180,3.6,-999.0,47,-99.99,,,0.00,Acu-Link.com,2013-09-05 16:45:00,
2013-09-05 13:00:00,87.8,65.0,29.90,South,180,2.0,-999.0,47,-99.99,,,0.00,Acu-Link.com,2013-09-05 17:00:00,
2013-09-05 13:16:00,86.0,64.0,29.90,South,180,2.7,-999.0,48,-99.99,,,0.00,Acu-Link.com,2013-09-05 17:16:00,
2013-09-05 13:31:00,86.0,64.6,29.90,South,180,3.6,-999.0,49,-99.99,,,0.00,Acu-Link.com,2013-09-05 17:31:00,
2013-09-05 13:46:00,89.6,64.8,29.90,South,180,2.0,-999.0,44,-99.99,,,0.00,Acu-Link.com,2013-09-05 17:46:00,
2013-09-05 14:02:00,87.8,66.8,29.89,SW,225,3.6,-999.0,50,-99.99,,,0.00,Acu-Link.com,2013-09-05 18:02:00,
2013-09-05 14:17:00,89.6,64.8,29.89,SSE,157,2.0,-999.0,44,-99.99,,,0.00,Acu-Link.com,2013-09-05 18:17:00,
2013-09-05 14:32:00,95.0,68.3,29.89,SE,135,3.1,-999.0,42,-99.99,,,0.00,Acu-Link.com,2013-09-05 18:32:00,
2013-09-05 14:47:00,95.0,66.8,29.88,ENE,67,2.0,-999.0,40,-99.99,,,0.00,Acu-Link.com,2013-09-05 18:47:00,
2013-09-05 15:02:00,96.8,66.2,29.88,ENE,67,3.1,-999.0,37,-99.99,,,0.00,Acu-Link.com,2013-09-05 19:02:00,
2013-09-05 15:18:00,98.6,67.0,29.87,West,270,2.7,-999.0,36,-99.99,,,0.00,Acu-Link.com,2013-09-05 19:18:00,
2013-09-05 15:33:00,98.6,61.7,29.87,South,180,1.1,-999.0,30,-99.99,,,0.00,Acu-Link.com,2013-09-05 19:33:00,
2013-09-05 15:48:00,100.4,61.3,29.86,NNE,22,2.0,-999.0,28,-99.99,,,0.00,Acu-Link.com,2013-09-05 19:48:00,
2013-09-05 16:03:00,98.6,57.7,29.86,SE,135,1.6,-999.0,26,-99.99,,,0.00,Acu-Link.com,2013-09-05 20:03:00,
2013-09-05 16:18:00,100.4,57.0,29.86,ESE,112,2.0,-999.0,24,-99.99,,,0.00,Acu-Link.com,2013-09-05 20:18:00,
2013-09-05 16:34:00,98.6,55.5,29.86,SE,135,2.0,-999.0,24,-99.99,,,0.00,Acu-Link.com,2013-09-05 20:34:00,
2013-09-05 16:49:00,98.6,56.6,29.86,NNW,337,2.0,-999.0,25,-99.99,,,0.00,Acu-Link.com,2013-09-05 20:49:00,
2013-09-05 17:04:00,98.6,53.1,29.86,NNW,337,0.0,-999.0,22,-99.99,,,0.00,Acu-Link.com,2013-09-05 21:04:00,
2013-09-05 17:19:00,98.6,57.7,29.86,NNE,22,2.0,-999.0,26,-99.99,,,0.00,Acu-Link.com,2013-09-05 21:19:00,
2013-09-05 17:35:00,96.8,60.2,29.86,NNE,22,1.6,-999.0,30,-99.99,,,0.00,Acu-Link.com,2013-09-05 21:35:00,
2013-09-05 17:50:00,91.4,60.6,29.85,North,0,0.0,-999.0,36,-99.99,,,0.00,Acu-Link.com,2013-09-05 21:50:00,
2013-09-05 18:05:00,87.8,62.5,29.85,NNE,22,0.0,-999.0,43,-99.99,,,0.00,Acu-Link.com,2013-09-05 22:05:00,
2013-09-05 18:21:00,86.0,62.8,29.85,NNE,22,1.6,-999.0,46,-99.99,,,0.00,Acu-Link.com,2013-09-05 22:21:00,
2013-09-05 18:36:00,80.6,61.9,29.85,NNE,22,0.0,-999.0,53,-99.99,,,0.00,Acu-Link.com,2013-09-05 22:36:00,
2013-09-05 18:51:00,78.8,61.8,29.85,NNE,22,0.0,-999.0,56,-99.99,,,0.00,Acu-Link.com,2013-09-05 22:51:00,
2013-09-05 19:07:00,78.8,63.7,29.85,NNE,22,0.0,-999.0,60,-99.99,,,0.00,Acu-Link.com,2013-09-05 23:07:00,
2013-09-05 19:22:00,77.0,63.0,29.85,NNE,22,0.0,-999.0,62,-99.99,,,0.00,Acu-Link.com,2013-09-05 23:22:00,
2013-09-05 19:37:00,75.2,62.6,29.85,NNE,22,0.0,-999.0,65,-99.99,,,0.00,Acu-Link.com,2013-09-05 23:37:00,
2013-09-05 19:52:00,73.4,62.2,29.85,NNE,22,0.0,-999.0,68,-99.99,,,0.00,Acu-Link.com,2013-09-05 23:52:00,
2013-09-05 20:07:00,71.6,61.3,29.85,NNE,22,0.0,-999.0,70,-99.99,,,0.00,Acu-Link.com,2013-09-06 00:07:00,
2013-09-05 20:22:00,71.6,62.9,29.85,NNE,22,0.0,-999.0,74,-99.99,,,0.00,Acu-Link.com,2013-09-06 00:22:00,
2013-09-05 20:37:00,69.8,61.9,29.85,NNE,22,0.0,-999.0,76,-99.99,,,0.00,Acu-Link.com,2013-09-06 00:37:00,
2013-09-05 20:53:00,69.8,62.3,29.86,NNE,22,0.0,-999.0,77,-99.99,,,0.00,Acu-Link.com,2013-09-06 00:53:00,
2013-09-05 21:08:00,68.0,61.6,29.86,NNE,22,0.0,-999.0,80,-99.99,,,0.00,Acu-Link.com,2013-09-06 01:08:00,
2013-09-05 21:23:00,68.0,61.9,29.87,NNE,22,0.0,-999.0,81,-99.99,,,0.00,Acu-Link.com,2013-09-06 01:23:00,
2013-09-05 21:38:00,68.0,62.6,29.88,NNE,22,0.0,-999.0,83,-99.99,,,0.00,Acu-Link.com,2013-09-06 01:38:00,
2013-09-05 21:53:00,68.0,63.3,29.88,NNE,22,0.0,-999.0,85,-99.99,,,0.00,Acu-Link.com,2013-09-06 01:53:00,
2013-09-05 22:09:00,68.0,63.3,29.88,NNE,22,0.0,-999.0,85,-99.99,,,0.00,Acu-Link.com,2013-09-06 02:09:00,
2013-09-05 22:24:00,66.2,62.2,29.89,NNE,22,0.0,-999.0,87,-99.99,,,0.00,Acu-Link.com,2013-09-06 02:24:00,
2013-09-05 22:39:00,66.2,62.2,29.89,NNE,22,0.0,-999.0,87,-99.99,,,0.00,Acu-Link.com,2013-09-06 02:39:00,
2013-09-05 22:55:00,66.2,62.5,29.90,NNE,22,0.0,-999.0,88,-99.99,,,0.00,Acu-Link.com,2013-09-06 02:55:00,
2013-09-05 23:10:00,66.2,62.9,29.90,NNE,22,0.0,-999.0,89,-99.99,,,0.00,Acu-Link.com,2013-09-06 03:10:00,
2013-09-05 23:25:00,66.2,64.4,29.91,NNE,22,0.0,-999.0,94,-99.99,,,0.00,Acu-Link.com,2013-09-06 03:25:00,
2013-09-05 23:40:00,68.0,66.5,29.90,NNE,22,0.0,-999.0,95,-99.99,,,0.00,Acu-Link.com,2013-09-06 03:40:00,
2013-09-05 23:56:00,68.0,66.8,29.90,North,0,0.0,-999.0,96,-99.99,,,0.00,Acu-Link.com,2013-09-06 03:56:00,